sensor_id;sensor_type;location;lat;lon;timestamp;temperature;humidity
39021;DHT22;25188;51.958;5.842;2023-06-22T00:00:52;21.30;78.70
39021;DHT22;25188;51.958;5.842;2023-06-22T00:03:19;21.30;78.50
39021;DHT22;25188;51.958;5.842;2023-06-22T00:05:45;21.30;78.40
39021;DHT22;25188;51.958;5.842;2023-06-22T00:08:11;21.20;78.20
39021;DHT22;25188;51.958;5.842;2023-06-22T00:10:37;21.20;78.20
39021;DHT22;25188;51.958;5.842;2023-06-22T00:13:03;21.20;78.20
39021;DHT22;25188;51.958;5.842;2023-06-22T00:15:29;21.20;78.20
39021;DHT22;25188;51.958;5.842;2023-06-22T00:17:55;21.10;78.10
39021;DHT22;25188;51.958;5.842;2023-06-22T00:20:26;21.10;78.20
39021;DHT22;25188;51.958;5.842;2023-06-22T00:22:56;21.10;78.50
39021;DHT22;25188;51.958;5.842;2023-06-22T00:25:22;21.10;78.80
39021;DHT22;25188;51.958;5.842;2023-06-22T00:27:48;21.00;78.80
39021;DHT22;25188;51.958;5.842;2023-06-22T00:30:17;21.00;78.90
39021;DHT22;25188;51.958;5.842;2023-06-22T00:32:44;21.00;78.90
39021;DHT22;25188;51.958;5.842;2023-06-22T00:35:10;21.00;78.60
39021;DHT22;25188;51.958;5.842;2023-06-22T00:37:39;20.90;78.50
39021;DHT22;25188;51.958;5.842;2023-06-22T00:40:08;20.90;78.40
39021;DHT22;25188;51.958;5.842;2023-06-22T00:42:37;20.90;78.40
39021;DHT22;25188;51.958;5.842;2023-06-22T00:45:05;20.90;78.60
39021;DHT22;25188;51.958;5.842;2023-06-22T00:47:31;20.80;78.70
39021;DHT22;25188;51.958;5.842;2023-06-22T00:49:56;20.80;78.90
39021;DHT22;25188;51.958;5.842;2023-06-22T00:52:23;20.70;79.10
39021;DHT22;25188;51.958;5.842;2023-06-22T00:54:56;20.70;79.40
39021;DHT22;25188;51.958;5.842;2023-06-22T00:57:24;20.70;79.60
39021;DHT22;25188;51.958;5.842;2023-06-22T00:59:53;20.60;79.80
39021;DHT22;25188;51.958;5.842;2023-06-22T01:02:19;20.60;80.00
39021;DHT22;25188;51.958;5.842;2023-06-22T01:04:45;20.60;80.30
39021;DHT22;25188;51.958;5.842;2023-06-22T01:09:57;20.50;80.50
39021;DHT22;25188;51.958;5.842;2023-06-22T01:12:25;20.50;80.80
39021;DHT22;25188;51.958;5.842;2023-06-22T01:15:23;20.40;80.90
39021;DHT22;25188;51.958;5.842;2023-06-22T01:17:47;20.40;81.40
39021;DHT22;25188;51.958;5.842;2023-06-22T01:20:14;20.30;81.30
39021;DHT22;25188;51.958;5.842;2023-06-22T01:25:50;20.30;81.60
39021;DHT22;25188;51.958;5.842;2023-06-22T01:28:47;20.30;81.80
39021;DHT22;25188;51.958;5.842;2023-06-22T01:31:24;20.20;82.00
39021;DHT22;25188;51.958;5.842;2023-06-22T01:33:53;20.20;82.10
39021;DHT22;25188;51.958;5.842;2023-06-22T01:36:21;20.20;82.10
39021;DHT22;25188;51.958;5.842;2023-06-22T01:38:48;20.10;82.20
39021;DHT22;25188;51.958;5.842;2023-06-22T01:41:15;20.10;82.40
39021;DHT22;25188;51.958;5.842;2023-06-22T01:43:43;20.10;82.70
39021;DHT22;25188;51.958;5.842;2023-06-22T01:46:09;20.10;82.80
39021;DHT22;25188;51.958;5.842;2023-06-22T01:48:35;20.00;82.80
39021;DHT22;25188;51.958;5.842;2023-06-22T01:51:02;20.00;82.80
39021;DHT22;25188;51.958;5.842;2023-06-22T01:53:27;20.00;83.00
39021;DHT22;25188;51.958;5.842;2023-06-22T01:55:53;19.90;83.00
39021;DHT22;25188;51.958;5.842;2023-06-22T01:58:21;19.90;83.10
39021;DHT22;25188;51.958;5.842;2023-06-22T02:00:53;19.90;83.20
39021;DHT22;25188;51.958;5.842;2023-06-22T02:03:30;19.90;83.30
39021;DHT22;25188;51.958;5.842;2023-06-22T02:06:01;19.90;83.40
39021;DHT22;25188;51.958;5.842;2023-06-22T02:08:31;19.80;83.40
39021;DHT22;25188;51.958;5.842;2023-06-22T02:10:58;19.80;83.40
39021;DHT22;25188;51.958;5.842;2023-06-22T02:13:25;19.80;83.50
39021;DHT22;25188;51.958;5.842;2023-06-22T02:15:51;19.80;83.60
39021;DHT22;25188;51.958;5.842;2023-06-22T02:18:17;19.80;83.80
39021;DHT22;25188;51.958;5.842;2023-06-22T02:20:42;19.80;83.90
39021;DHT22;25188;51.958;5.842;2023-06-22T02:23:09;19.70;84.00
39021;DHT22;25188;51.958;5.842;2023-06-22T02:25:35;19.70;84.10
39021;DHT22;25188;51.958;5.842;2023-06-22T02:28:01;19.70;84.20
39021;DHT22;25188;51.958;5.842;2023-06-22T02:30:27;19.70;84.30
39021;DHT22;25188;51.958;5.842;2023-06-22T02:32:52;19.70;84.30
39021;DHT22;25188;51.958;5.842;2023-06-22T02:35:28;19.70;84.50
39021;DHT22;25188;51.958;5.842;2023-06-22T02:37:58;19.70;84.50
39021;DHT22;25188;51.958;5.842;2023-06-22T02:40:25;19.70;84.60
39021;DHT22;25188;51.958;5.842;2023-06-22T02:42:51;19.60;84.60
39021;DHT22;25188;51.958;5.842;2023-06-22T02:45:16;19.60;84.70
39021;DHT22;25188;51.958;5.842;2023-06-22T02:47:42;19.60;84.80
39021;DHT22;25188;51.958;5.842;2023-06-22T02:50:08;19.60;84.90
39021;DHT22;25188;51.958;5.842;2023-06-22T02:52:33;19.60;85.00
39021;DHT22;25188;51.958;5.842;2023-06-22T02:54:59;19.60;85.10
39021;DHT22;25188;51.958;5.842;2023-06-22T02:57:25;19.50;85.10
39021;DHT22;25188;51.958;5.842;2023-06-22T02:59:51;19.50;85.20
39021;DHT22;25188;51.958;5.842;2023-06-22T03:02:16;19.40;85.30
39021;DHT22;25188;51.958;5.842;2023-06-22T03:04:43;19.40;85.40
39021;DHT22;25188;51.958;5.842;2023-06-22T03:07:08;19.40;85.60
39021;DHT22;25188;51.958;5.842;2023-06-22T03:09:34;19.40;85.70
39021;DHT22;25188;51.958;5.842;2023-06-22T03:12:00;19.40;85.70
39021;DHT22;25188;51.958;5.842;2023-06-22T03:14:27;19.40;86.10
39021;DHT22;25188;51.958;5.842;2023-06-22T03:16:53;19.40;86.20
39021;DHT22;25188;51.958;5.842;2023-06-22T03:19:18;19.40;86.30
39021;DHT22;25188;51.958;5.842;2023-06-22T03:21:45;19.30;86.30
39021;DHT22;25188;51.958;5.842;2023-06-22T03:24:11;19.30;86.40
39021;DHT22;25188;51.958;5.842;2023-06-22T03:26:36;19.30;86.70
39021;DHT22;25188;51.958;5.842;2023-06-22T03:29:02;19.30;86.90
39021;DHT22;25188;51.958;5.842;2023-06-22T03:31:28;19.30;87.10
39021;DHT22;25188;51.958;5.842;2023-06-22T03:33:54;19.30;88.00
39021;DHT22;25188;51.958;5.842;2023-06-22T03:36:19;19.30;87.50
39021;DHT22;25188;51.958;5.842;2023-06-22T03:38:46;19.30;87.90
39021;DHT22;25188;51.958;5.842;2023-06-22T03:41:12;19.30;88.10
39021;DHT22;25188;51.958;5.842;2023-06-22T03:43:38;19.20;88.40
39021;DHT22;25188;51.958;5.842;2023-06-22T03:46:04;19.20;88.60
39021;DHT22;25188;51.958;5.842;2023-06-22T03:48:29;19.20;88.80
39021;DHT22;25188;51.958;5.842;2023-06-22T03:50:55;19.20;89.30
39021;DHT22;25188;51.958;5.842;2023-06-22T03:53:20;19.20;89.40
39021;DHT22;25188;51.958;5.842;2023-06-22T03:55:51;19.20;89.90
39021;DHT22;25188;51.958;5.842;2023-06-22T03:58:17;19.20;90.10
39021;DHT22;25188;51.958;5.842;2023-06-22T04:00:50;19.20;90.20
39021;DHT22;25188;51.958;5.842;2023-06-22T04:03:16;19.20;90.30
39021;DHT22;25188;51.958;5.842;2023-06-22T04:05:46;19.20;90.30
39021;DHT22;25188;51.958;5.842;2023-06-22T04:08:13;19.10;90.40
39021;DHT22;25188;51.958;5.842;2023-06-22T04:10:38;19.10;90.50
39021;DHT22;25188;51.958;5.842;2023-06-22T04:13:04;19.10;90.60
39021;DHT22;25188;51.958;5.842;2023-06-22T04:15:30;19.10;90.60
39021;DHT22;25188;51.958;5.842;2023-06-22T04:17:55;19.10;90.80
39021;DHT22;25188;51.958;5.842;2023-06-22T04:20:22;19.10;90.90
39021;DHT22;25188;51.958;5.842;2023-06-22T04:22:47;19.10;91.00
39021;DHT22;25188;51.958;5.842;2023-06-22T04:25:14;19.10;91.10
39021;DHT22;25188;51.958;5.842;2023-06-22T04:27:39;19.20;91.20
39021;DHT22;25188;51.958;5.842;2023-06-22T04:30:08;19.20;91.40
39021;DHT22;25188;51.958;5.842;2023-06-22T04:32:34;19.20;91.50
39021;DHT22;25188;51.958;5.842;2023-06-22T04:35:02;19.20;91.70
39021;DHT22;25188;51.958;5.842;2023-06-22T04:37:30;19.30;91.90
39021;DHT22;25188;51.958;5.842;2023-06-22T04:39:55;19.30;92.00
39021;DHT22;25188;51.958;5.842;2023-06-22T04:42:21;19.30;92.10
39021;DHT22;25188;51.958;5.842;2023-06-22T04:44:46;19.30;92.20
39021;DHT22;25188;51.958;5.842;2023-06-22T04:47:12;19.40;92.30
39021;DHT22;25188;51.958;5.842;2023-06-22T04:49:38;19.40;92.50
39021;DHT22;25188;51.958;5.842;2023-06-22T04:52:07;19.40;92.50
39021;DHT22;25188;51.958;5.842;2023-06-22T04:54:34;19.40;92.70
39021;DHT22;25188;51.958;5.842;2023-06-22T04:57:01;19.40;92.70
39021;DHT22;25188;51.958;5.842;2023-06-22T04:59:28;19.50;92.90
39021;DHT22;25188;51.958;5.842;2023-06-22T05:02:02;19.50;93.00
39021;DHT22;25188;51.958;5.842;2023-06-22T05:04:29;19.50;93.10
39021;DHT22;25188;51.958;5.842;2023-06-22T05:06:59;19.60;93.20
39021;DHT22;25188;51.958;5.842;2023-06-22T05:09:25;19.60;93.30
39021;DHT22;25188;51.958;5.842;2023-06-22T05:11:51;19.70;93.40
39021;DHT22;25188;51.958;5.842;2023-06-22T05:14:17;19.70;93.40
39021;DHT22;25188;51.958;5.842;2023-06-22T05:16:44;19.80;93.50
39021;DHT22;25188;51.958;5.842;2023-06-22T05:19:10;19.80;93.60
39021;DHT22;25188;51.958;5.842;2023-06-22T05:21:37;19.90;93.70
39021;DHT22;25188;51.958;5.842;2023-06-22T05:24:03;19.90;93.70
39021;DHT22;25188;51.958;5.842;2023-06-22T05:26:33;19.90;93.60
39021;DHT22;25188;51.958;5.842;2023-06-22T05:29:01;20.00;93.70
39021;DHT22;25188;51.958;5.842;2023-06-22T05:31:28;20.00;93.60
39021;DHT22;25188;51.958;5.842;2023-06-22T05:33:54;20.00;93.90
39021;DHT22;25188;51.958;5.842;2023-06-22T05:36:21;20.00;93.60
39021;DHT22;25188;51.958;5.842;2023-06-22T05:38:50;20.10;93.60
39021;DHT22;25188;51.958;5.842;2023-06-22T05:41:16;20.10;93.60
39021;DHT22;25188;51.958;5.842;2023-06-22T05:43:41;20.10;93.60
39021;DHT22;25188;51.958;5.842;2023-06-22T05:46:07;20.10;93.50
39021;DHT22;25188;51.958;5.842;2023-06-22T05:48:33;20.20;93.60
39021;DHT22;25188;51.958;5.842;2023-06-22T05:50:59;20.20;93.50
39021;DHT22;25188;51.958;5.842;2023-06-22T05:53:25;20.30;93.80
39021;DHT22;25188;51.958;5.842;2023-06-22T05:55:51;20.30;93.50
39021;DHT22;25188;51.958;5.842;2023-06-22T05:58:16;20.30;93.50
39021;DHT22;25188;51.958;5.842;2023-06-22T06:00:42;20.40;93.50
39021;DHT22;25188;51.958;5.842;2023-06-22T06:03:09;20.40;93.50
39021;DHT22;25188;51.958;5.842;2023-06-22T06:05:35;20.40;93.50
39021;DHT22;25188;51.958;5.842;2023-06-22T06:08:02;20.60;93.50
39021;DHT22;25188;51.958;5.842;2023-06-22T06:10:30;20.60;93.40
39021;DHT22;25188;51.958;5.842;2023-06-22T06:12:56;20.70;93.40
39021;DHT22;25188;51.958;5.842;2023-06-22T06:15:22;20.80;93.30
39021;DHT22;25188;51.958;5.842;2023-06-22T06:17:52;20.80;93.20
39021;DHT22;25188;51.958;5.842;2023-06-22T06:20:22;20.80;93.00
39021;DHT22;25188;51.958;5.842;2023-06-22T06:22:48;20.90;92.90
39021;DHT22;25188;51.958;5.842;2023-06-22T06:25:14;21.00;92.80
39021;DHT22;25188;51.958;5.842;2023-06-22T06:27:49;21.10;92.70
39021;DHT22;25188;51.958;5.842;2023-06-22T06:30:17;21.10;92.50
39021;DHT22;25188;51.958;5.842;2023-06-22T06:32:44;21.20;92.50
39021;DHT22;25188;51.958;5.842;2023-06-22T06:35:11;21.30;92.40
39021;DHT22;25188;51.958;5.842;2023-06-22T06:37:42;21.40;92.30
39021;DHT22;25188;51.958;5.842;2023-06-22T06:40:09;21.50;92.30
39021;DHT22;25188;51.958;5.842;2023-06-22T06:42:40;21.50;92.10
39021;DHT22;25188;51.958;5.842;2023-06-22T06:45:16;21.60;91.90
39021;DHT22;25188;51.958;5.842;2023-06-22T06:47:42;21.70;91.80
39021;DHT22;25188;51.958;5.842;2023-06-22T06:50:08;21.80;91.60
39021;DHT22;25188;51.958;5.842;2023-06-22T06:52:35;21.90;91.40
39021;DHT22;25188;51.958;5.842;2023-06-22T06:55:01;22.00;91.30
39021;DHT22;25188;51.958;5.842;2023-06-22T06:57:26;22.10;91.10
39021;DHT22;25188;51.958;5.842;2023-06-22T06:59:54;22.20;91.00
39021;DHT22;25188;51.958;5.842;2023-06-22T07:02:21;22.30;90.80
39021;DHT22;25188;51.958;5.842;2023-06-22T07:04:47;22.40;90.60
39021;DHT22;25188;51.958;5.842;2023-06-22T07:07:13;22.50;90.40
39021;DHT22;25188;51.958;5.842;2023-06-22T07:09:39;22.50;90.20
39021;DHT22;25188;51.958;5.842;2023-06-22T07:12:05;22.60;90.10
39021;DHT22;25188;51.958;5.842;2023-06-22T07:14:30;22.70;89.70
39021;DHT22;25188;51.958;5.842;2023-06-22T07:16:57;22.80;89.10
39021;DHT22;25188;51.958;5.842;2023-06-22T07:19:27;22.80;88.70
39021;DHT22;25188;51.958;5.842;2023-06-22T07:21:53;22.80;88.30
39021;DHT22;25188;51.958;5.842;2023-06-22T07:24:24;22.90;87.90
39021;DHT22;25188;51.958;5.842;2023-06-22T07:26:50;22.90;87.60
39021;DHT22;25188;51.958;5.842;2023-06-22T07:29:19;23.00;87.20
39021;DHT22;25188;51.958;5.842;2023-06-22T07:31:47;23.00;86.70
39021;DHT22;25188;51.958;5.842;2023-06-22T07:34:13;23.10;86.40
39021;DHT22;25188;51.958;5.842;2023-06-22T07:36:39;23.20;86.10
39021;DHT22;25188;51.958;5.842;2023-06-22T07:39:05;23.30;85.60
39021;DHT22;25188;51.958;5.842;2023-06-22T07:41:31;23.30;85.30
39021;DHT22;25188;51.958;5.842;2023-06-22T07:43:56;23.40;85.10
39021;DHT22;25188;51.958;5.842;2023-06-22T07:46:22;23.40;84.80
39021;DHT22;25188;51.958;5.842;2023-06-22T07:48:48;23.60;84.70
39021;DHT22;25188;51.958;5.842;2023-06-22T07:51:14;23.70;84.40
39021;DHT22;25188;51.958;5.842;2023-06-22T07:53:43;23.80;84.20
39021;DHT22;25188;51.958;5.842;2023-06-22T07:56:13;23.90;83.80
39021;DHT22;25188;51.958;5.842;2023-06-22T07:58:39;24.00;83.30
39021;DHT22;25188;51.958;5.842;2023-06-22T08:01:04;24.10;82.70
39021;DHT22;25188;51.958;5.842;2023-06-22T08:03:31;24.10;81.90
39021;DHT22;25188;51.958;5.842;2023-06-22T08:05:57;24.20;81.60
39021;DHT22;25188;51.958;5.842;2023-06-22T08:08:23;24.30;81.30
39021;DHT22;25188;51.958;5.842;2023-06-22T08:10:49;24.40;80.70
39021;DHT22;25188;51.958;5.842;2023-06-22T08:13:14;24.40;80.80
39021;DHT22;25188;51.958;5.842;2023-06-22T08:15:40;24.50;79.80
39021;DHT22;25188;51.958;5.842;2023-06-22T08:18:06;24.50;79.60
39021;DHT22;25188;51.958;5.842;2023-06-22T08:20:31;24.60;79.40
39021;DHT22;25188;51.958;5.842;2023-06-22T08:22:58;24.70;79.00
39021;DHT22;25188;51.958;5.842;2023-06-22T08:25:30;24.80;78.70
39021;DHT22;25188;51.958;5.842;2023-06-22T08:27:56;24.90;78.40
39021;DHT22;25188;51.958;5.842;2023-06-22T08:30:21;25.00;78.00
39021;DHT22;25188;51.958;5.842;2023-06-22T08:32:47;25.10;77.30
39021;DHT22;25188;51.958;5.842;2023-06-22T08:35:13;25.20;76.70
39021;DHT22;25188;51.958;5.842;2023-06-22T08:37:38;25.40;76.40
39021;DHT22;25188;51.958;5.842;2023-06-22T08:40:06;25.50;75.60
39021;DHT22;25188;51.958;5.842;2023-06-22T08:42:40;25.70;75.10
39021;DHT22;25188;51.958;5.842;2023-06-22T08:45:07;25.80;74.60
39021;DHT22;25188;51.958;5.842;2023-06-22T08:47:33;25.90;74.20
39021;DHT22;25188;51.958;5.842;2023-06-22T08:49:58;26.10;73.70
39021;DHT22;25188;51.958;5.842;2023-06-22T08:52:24;26.20;72.90
39021;DHT22;25188;51.958;5.842;2023-06-22T08:54:50;26.20;71.80
39021;DHT22;25188;51.958;5.842;2023-06-22T08:57:16;26.30;70.90
39021;DHT22;25188;51.958;5.842;2023-06-22T08:59:42;26.20;70.70
39021;DHT22;25188;51.958;5.842;2023-06-22T09:02:08;26.30;70.60
39021;DHT22;25188;51.958;5.842;2023-06-22T09:04:34;26.30;70.40
39021;DHT22;25188;51.958;5.842;2023-06-22T09:07:01;26.40;70.30
39021;DHT22;25188;51.958;5.842;2023-06-22T09:09:27;26.50;70.10
39021;DHT22;25188;51.958;5.842;2023-06-22T09:11:52;26.60;70.10
39021;DHT22;25188;51.958;5.842;2023-06-22T09:14:18;26.80;69.70
39021;DHT22;25188;51.958;5.842;2023-06-22T09:16:44;26.90;69.30
39021;DHT22;25188;51.958;5.842;2023-06-22T09:19:10;27.00;68.60
39021;DHT22;25188;51.958;5.842;2023-06-22T09:21:35;27.10;68.10
39021;DHT22;25188;51.958;5.842;2023-06-22T09:24:01;27.20;67.70
39021;DHT22;25188;51.958;5.842;2023-06-22T09:26:27;27.20;67.00
39021;DHT22;25188;51.958;5.842;2023-06-22T09:28:52;27.30;66.30
39021;DHT22;25188;51.958;5.842;2023-06-22T09:31:18;27.30;65.40
39021;DHT22;25188;51.958;5.842;2023-06-22T09:33:51;27.30;65.30
39021;DHT22;25188;51.958;5.842;2023-06-22T09:36:17;27.30;64.60
39021;DHT22;25188;51.958;5.842;2023-06-22T09:38:43;27.20;63.70
39021;DHT22;25188;51.958;5.842;2023-06-22T09:41:08;27.20;63.50
39021;DHT22;25188;51.958;5.842;2023-06-22T09:43:34;27.10;63.50
39021;DHT22;25188;51.958;5.842;2023-06-22T09:46:01;27.00;63.30
39021;DHT22;25188;51.958;5.842;2023-06-22T09:48:28;27.00;63.30
39021;DHT22;25188;51.958;5.842;2023-06-22T09:50:54;27.00;63.00
39021;DHT22;25188;51.958;5.842;2023-06-22T09:53:20;27.00;62.60
39021;DHT22;25188;51.958;5.842;2023-06-22T09:55:46;26.90;62.50
39021;DHT22;25188;51.958;5.842;2023-06-22T09:58:12;26.90;62.20
39021;DHT22;25188;51.958;5.842;2023-06-22T10:00:38;26.80;61.90
39021;DHT22;25188;51.958;5.842;2023-06-22T10:03:03;26.80;62.00
39021;DHT22;25188;51.958;5.842;2023-06-22T10:05:29;26.80;62.40
39021;DHT22;25188;51.958;5.842;2023-06-22T10:07:55;26.80;62.20
39021;DHT22;25188;51.958;5.842;2023-06-22T10:10:20;26.70;61.90
39021;DHT22;25188;51.958;5.842;2023-06-22T10:12:47;26.70;62.10
39021;DHT22;25188;51.958;5.842;2023-06-22T10:15:14;26.60;62.10
39021;DHT22;25188;51.958;5.842;2023-06-22T10:17:39;26.60;62.00
39021;DHT22;25188;51.958;5.842;2023-06-22T10:20:08;26.50;62.10
39021;DHT22;25188;51.958;5.842;2023-06-22T10:22:41;26.50;62.20
39021;DHT22;25188;51.958;5.842;2023-06-22T10:25:08;26.40;62.30
39021;DHT22;25188;51.958;5.842;2023-06-22T10:27:34;26.40;63.00
39021;DHT22;25188;51.958;5.842;2023-06-22T10:30:00;26.40;62.30
39021;DHT22;25188;51.958;5.842;2023-06-22T10:32:26;26.50;63.00
39021;DHT22;25188;51.958;5.842;2023-06-22T10:34:53;26.40;62.20
39021;DHT22;25188;51.958;5.842;2023-06-22T10:37:19;26.40;62.30
39021;DHT22;25188;51.958;5.842;2023-06-22T10:39:44;26.40;62.60
39021;DHT22;25188;51.958;5.842;2023-06-22T10:42:10;26.40;62.80
39021;DHT22;25188;51.958;5.842;2023-06-22T10:44:35;26.40;62.90
39021;DHT22;25188;51.958;5.842;2023-06-22T10:47:01;26.40;63.10
39021;DHT22;25188;51.958;5.842;2023-06-22T10:49:26;26.40;63.20
39021;DHT22;25188;51.958;5.842;2023-06-22T10:51:52;26.50;63.10
39021;DHT22;25188;51.958;5.842;2023-06-22T10:54:18;26.40;63.10
39021;DHT22;25188;51.958;5.842;2023-06-22T10:56:44;26.50;63.00
39021;DHT22;25188;51.958;5.842;2023-06-22T10:59:10;26.50;63.20
39021;DHT22;25188;51.958;5.842;2023-06-22T11:01:36;26.40;63.20
39021;DHT22;25188;51.958;5.842;2023-06-22T11:04:02;26.40;63.30
39021;DHT22;25188;51.958;5.842;2023-06-22T11:06:28;26.40;63.20
39021;DHT22;25188;51.958;5.842;2023-06-22T11:08:53;26.40;63.20
39021;DHT22;25188;51.958;5.842;2023-06-22T11:11:19;26.40;63.30
39021;DHT22;25188;51.958;5.842;2023-06-22T11:13:44;26.30;63.30
39021;DHT22;25188;51.958;5.842;2023-06-22T11:16:10;26.30;63.40
39021;DHT22;25188;51.958;5.842;2023-06-22T11:18:36;26.30;63.20
39021;DHT22;25188;51.958;5.842;2023-06-22T11:21:02;26.30;63.10
39021;DHT22;25188;51.958;5.842;2023-06-22T11:23:28;26.30;63.30
39021;DHT22;25188;51.958;5.842;2023-06-22T11:25:54;26.20;63.60
39021;DHT22;25188;51.958;5.842;2023-06-22T11:28:20;26.20;64.10
39021;DHT22;25188;51.958;5.842;2023-06-22T11:30:46;26.20;64.60
39021;DHT22;25188;51.958;5.842;2023-06-22T11:33:11;26.20;65.20
39021;DHT22;25188;51.958;5.842;2023-06-22T11:35:37;26.10;65.30
39021;DHT22;25188;51.958;5.842;2023-06-22T11:38:03;26.10;66.30
39021;DHT22;25188;51.958;5.842;2023-06-22T11:40:30;26.00;66.30
39021;DHT22;25188;51.958;5.842;2023-06-22T11:42:56;25.90;67.40
39021;DHT22;25188;51.958;5.842;2023-06-22T11:45:21;25.90;67.70
39021;DHT22;25188;51.958;5.842;2023-06-22T11:47:47;25.80;68.00
39021;DHT22;25188;51.958;5.842;2023-06-22T11:50:13;25.70;68.30
39021;DHT22;25188;51.958;5.842;2023-06-22T11:52:39;25.60;68.60
39021;DHT22;25188;51.958;5.842;2023-06-22T11:55:05;25.60;69.20
39021;DHT22;25188;51.958;5.842;2023-06-22T11:57:37;25.50;69.60
39021;DHT22;25188;51.958;5.842;2023-06-22T12:00:04;25.40;69.90
39021;DHT22;25188;51.958;5.842;2023-06-22T12:02:43;25.40;70.40
39021;DHT22;25188;51.958;5.842;2023-06-22T12:05:10;25.30;71.20
39021;DHT22;25188;51.958;5.842;2023-06-22T12:07:36;25.20;72.50
39021;DHT22;25188;51.958;5.842;2023-06-22T12:10:03;25.10;73.60
39021;DHT22;25188;51.958;5.842;2023-06-22T12:12:29;25.00;73.40
39021;DHT22;25188;51.958;5.842;2023-06-22T12:14:54;25.00;74.30
39021;DHT22;25188;51.958;5.842;2023-06-22T12:17:20;24.80;74.90
39021;DHT22;25188;51.958;5.842;2023-06-22T12:19:46;24.80;75.10
39021;DHT22;25188;51.958;5.842;2023-06-22T12:22:11;24.70;75.50
39021;DHT22;25188;51.958;5.842;2023-06-22T12:24:37;24.60;76.30
39021;DHT22;25188;51.958;5.842;2023-06-22T12:27:03;24.60;77.10
39021;DHT22;25188;51.958;5.842;2023-06-22T12:29:29;24.50;77.80
39021;DHT22;25188;51.958;5.842;2023-06-22T12:31:55;24.40;77.90
39021;DHT22;25188;51.958;5.842;2023-06-22T12:34:20;24.30;78.30
39021;DHT22;25188;51.958;5.842;2023-06-22T12:36:46;24.20;78.80
39021;DHT22;25188;51.958;5.842;2023-06-22T12:39:14;24.20;79.20
39021;DHT22;25188;51.958;5.842;2023-06-22T12:41:39;24.10;79.60
39021;DHT22;25188;51.958;5.842;2023-06-22T12:44:05;24.00;80.40
39021;DHT22;25188;51.958;5.842;2023-06-22T12:46:30;23.90;80.60
39021;DHT22;25188;51.958;5.842;2023-06-22T12:49:03;23.90;80.80
39021;DHT22;25188;51.958;5.842;2023-06-22T12:51:29;23.80;80.80
39021;DHT22;25188;51.958;5.842;2023-06-22T12:53:55;23.70;81.10
39021;DHT22;25188;51.958;5.842;2023-06-22T12:56:20;23.70;81.40
39021;DHT22;25188;51.958;5.842;2023-06-22T12:58:46;23.70;81.90
39021;DHT22;25188;51.958;5.842;2023-06-22T13:01:12;23.60;82.40
39021;DHT22;25188;51.958;5.842;2023-06-22T13:03:37;23.60;82.80
39021;DHT22;25188;51.958;5.842;2023-06-22T13:06:03;23.60;82.90
39021;DHT22;25188;51.958;5.842;2023-06-22T13:08:29;23.50;83.20
39021;DHT22;25188;51.958;5.842;2023-06-22T13:10:55;23.50;83.70
39021;DHT22;25188;51.958;5.842;2023-06-22T13:13:23;23.40;84.10
39021;DHT22;25188;51.958;5.842;2023-06-22T13:15:50;23.40;84.50
39021;DHT22;25188;51.958;5.842;2023-06-22T13:18:16;23.30;84.70
39021;DHT22;25188;51.958;5.842;2023-06-22T13:20:41;23.30;85.30
39021;DHT22;25188;51.958;5.842;2023-06-22T13:23:07;23.20;85.30
39021;DHT22;25188;51.958;5.842;2023-06-22T13:25:33;23.20;85.80
39021;DHT22;25188;51.958;5.842;2023-06-22T13:27:58;23.10;86.10
39021;DHT22;25188;51.958;5.842;2023-06-22T13:30:24;23.10;86.40
39021;DHT22;25188;51.958;5.842;2023-06-22T13:32:49;23.00;86.70
39021;DHT22;25188;51.958;5.842;2023-06-22T13:35:15;23.00;87.00
39021;DHT22;25188;51.958;5.842;2023-06-22T13:37:41;23.00;87.20
39021;DHT22;25188;51.958;5.842;2023-06-22T13:40:07;22.90;87.60
39021;DHT22;25188;51.958;5.842;2023-06-22T13:42:33;22.80;87.90
39021;DHT22;25188;51.958;5.842;2023-06-22T13:44:58;22.80;88.00
39021;DHT22;25188;51.958;5.842;2023-06-22T13:47:24;22.60;88.50
39021;DHT22;25188;51.958;5.842;2023-06-22T13:49:50;22.50;88.60
39021;DHT22;25188;51.958;5.842;2023-06-22T13:52:15;22.50;89.10
39021;DHT22;25188;51.958;5.842;2023-06-22T13:54:41;22.40;89.40
39021;DHT22;25188;51.958;5.842;2023-06-22T13:57:07;22.30;89.90
39021;DHT22;25188;51.958;5.842;2023-06-22T13:59:32;22.30;90.00
39021;DHT22;25188;51.958;5.842;2023-06-22T14:01:58;22.20;90.30
39021;DHT22;25188;51.958;5.842;2023-06-22T14:04:24;22.20;90.40
39021;DHT22;25188;51.958;5.842;2023-06-22T14:06:49;22.10;90.50
39021;DHT22;25188;51.958;5.842;2023-06-22T14:09:15;22.10;90.50
39021;DHT22;25188;51.958;5.842;2023-06-22T14:11:41;22.00;90.60
39021;DHT22;25188;51.958;5.842;2023-06-22T14:14:06;21.90;90.80
39021;DHT22;25188;51.958;5.842;2023-06-22T14:16:32;21.90;91.00
39021;DHT22;25188;51.958;5.842;2023-06-22T14:18:58;21.80;91.40
39021;DHT22;25188;51.958;5.842;2023-06-22T14:21:23;21.80;91.50
39021;DHT22;25188;51.958;5.842;2023-06-22T14:23:49;21.70;91.70
39021;DHT22;25188;51.958;5.842;2023-06-22T14:26:16;21.70;91.80
39021;DHT22;25188;51.958;5.842;2023-06-22T14:28:48;21.60;91.90
39021;DHT22;25188;51.958;5.842;2023-06-22T14:31:18;21.60;92.10
39021;DHT22;25188;51.958;5.842;2023-06-22T14:33:48;21.60;92.10
39021;DHT22;25188;51.958;5.842;2023-06-22T14:36:17;21.60;92.30
39021;DHT22;25188;51.958;5.842;2023-06-22T14:38:43;21.60;92.40
39021;DHT22;25188;51.958;5.842;2023-06-22T14:41:09;21.60;92.60
39021;DHT22;25188;51.958;5.842;2023-06-22T14:43:35;21.60;92.80
39021;DHT22;25188;51.958;5.842;2023-06-22T14:46:00;21.60;93.00
39021;DHT22;25188;51.958;5.842;2023-06-22T14:48:26;21.50;93.00
39021;DHT22;25188;51.958;5.842;2023-06-22T14:50:53;21.50;93.20
39021;DHT22;25188;51.958;5.842;2023-06-22T14:53:19;21.50;93.60
39021;DHT22;25188;51.958;5.842;2023-06-22T14:55:45;21.40;94.00
39021;DHT22;25188;51.958;5.842;2023-06-22T14:58:11;21.40;94.40
39021;DHT22;25188;51.958;5.842;2023-06-22T15:00:37;21.30;94.40
39021;DHT22;25188;51.958;5.842;2023-06-22T15:03:04;21.30;94.50
39021;DHT22;25188;51.958;5.842;2023-06-22T15:05:32;21.30;94.90
39021;DHT22;25188;51.958;5.842;2023-06-22T15:07:57;21.20;95.20
39021;DHT22;25188;51.958;5.842;2023-06-22T15:10:24;21.20;95.20
39021;DHT22;25188;51.958;5.842;2023-06-22T15:12:50;21.10;95.50
39021;DHT22;25188;51.958;5.842;2023-06-22T15:15:15;21.10;95.60
39021;DHT22;25188;51.958;5.842;2023-06-22T15:17:41;21.00;95.90
39021;DHT22;25188;51.958;5.842;2023-06-22T15:20:07;21.00;96.10
39021;DHT22;25188;51.958;5.842;2023-06-22T15:22:33;20.90;96.40
39021;DHT22;25188;51.958;5.842;2023-06-22T15:24:59;20.80;96.40
39021;DHT22;25188;51.958;5.842;2023-06-22T15:27:24;20.80;96.70
39021;DHT22;25188;51.958;5.842;2023-06-22T15:29:50;20.80;96.70
39021;DHT22;25188;51.958;5.842;2023-06-22T15:32:16;20.70;96.90